Portada
METAR-TAF:

METAR-TAF

Aeroports :

Dakar, Senegal

latitud: 14-44N, longitud: 017-30W, altitud: 27 m

Observació

L'informe es va fer fa 1 hora i 9 minuts, a les 00:00 UTC
Vent 12 kt del Nord
Temperatura 21°C
Humitat 88%
Pressió 1014 hPa
Visibilitat: 8000 m

METAR: GOOY 200000Z 36012KT 8000 NSC 21/19 Q1014

Hora: 01:09 (01:09 UTC)

Pronòstic

L'informe es va fer fa 1 hora i 39 minuts, a les 23:30 UTC
Pronòstic vàlid del 20 a les 00 UTC al 21 a les 06 UTC
Vent 13 kt del Nord
Visibilitat 10 km o més
sense núvols per sota de 1500 mi sense presència de cumulonimbus.

TAF: GOOY 192330Z 2000/2106 36013KT CAVOK

Observacions i pronòstics meteorològics de més de 4000 aeroports (METAR i TAF).

Les estacions disponibles són els punts grocs i vermells al mapa.

Posi el ratolí al punt desitjat per veure el nom de l'estació.

Feu clic per veure les observacions i els pronòstics meteorològics.

Per canviar el mapa: feu clic els botons verds amb una creu de color negre per apropar; al botó verd amb un guió per allunyar la imatge; o en les fletxes verdes per a mapes adjacents.


METAR-TAF: